Time;durP1;ratioP1;P1;durP2;ratioP2;P2;SDS_P1;SDS_P2;PMS_P1;PMS_P2;Temp;Humidity;BMP_temperature;BMP_pressure;BME280_temperature;BME280_humidity;BME280_pressure;Samples;Min_cycle;Max_cycle;Signal;HPM_P1;HPM_P2
2021/08/05 00:02:32;;;;;;;;;;;22.10;50.60;;;;;;8331050;28;19921;-46
2021/08/05 00:06:32;;;;;;;;;;;22.10;50.60;;;;;;8330329;28;19955;-46
2021/08/05 00:10:33;;;;;;;;;;;22.10;50.60;;;;;;8331102;28;20382;-46
2021/08/05 00:14:34;;;;;;;;;;;22.10;50.60;;;;;;8331394;28;19921;-46
2021/08/05 00:18:34;;;;;;;;;;;22.10;50.60;;;;;;8330206;28;20286;-46
2021/08/05 00:22:35;;;;;;;;;;;22.10;50.60;;;;;;8330594;28;19913;-46
2021/08/05 00:26:35;;;;;;;;;;;22.10;50.60;;;;;;8330479;28;20302;-46
2021/08/05 00:30:35;;;;;;;;;;;22.10;50.60;;;;;;8330609;28;19928;-46
2021/08/05 00:34:36;;;;;;;;;;;22.10;50.60;;;;;;8330416;28;19925;-46
2021/08/05 00:38:36;;;;;;;;;;;22.10;50.60;;;;;;8330335;28;19967;-46
2021/08/05 00:42:37;;;;;;;;;;;22.00;50.60;;;;;;8329614;28;19917;-46
2021/08/05 00:46:37;;;;;;;;;;;22.00;50.60;;;;;;8330911;28;20378;-46
2021/08/05 00:50:38;;;;;;;;;;;22.00;50.60;;;;;;8330246;28;19925;-46
2021/08/05 00:54:38;;;;;;;;;;;22.00;50.60;;;;;;8329647;28;19921;-46
2021/08/05 00:58:39;;;;;;;;;;;22.00;50.60;;;;;;8331156;28;19935;-46
2021/08/05 01:02:42;;;;;;;;;;;22.00;50.60;;;;;;8336930;28;19921;-47
2021/08/05 01:06:51;;;;;;;;;;;22.00;50.50;;;;;;8337131;28;19966;-46
2021/08/05 01:10:51;;;;;;;;;;;22.00;50.60;;;;;;8336529;28;19999;-46
2021/08/05 01:15:14;;;;;;;;;;;22.00;50.60;;;;;;8335936;28;19961;-46
2021/08/05 01:19:21;;;;;;;;;;;22.00;50.60;;;;;;8336429;28;19921;-47
2021/08/05 01:23:38;;;;;;;;;;;22.00;50.60;;;;;;8336438;28;20282;-47
2021/08/05 01:27:39;;;;;;;;;;;22.00;50.60;;;;;;8336107;28;19917;-46
2021/08/05 01:31:41;;;;;;;;;;;22.00;50.60;;;;;;8335921;28;20013;-46
2021/08/05 01:35:42;;;;;;;;;;;22.00;50.60;;;;;;8335182;28;20391;-46
2021/08/05 01:39:43;;;;;;;;;;;22.00;50.60;;;;;;8335571;28;19913;-46
2021/08/05 01:43:44;;;;;;;;;;;21.90;50.50;;;;;;8336336;28;20015;-46
2021/08/05 01:47:45;;;;;;;;;;;22.00;50.60;;;;;;8334869;28;19918;-46
2021/08/05 01:51:46;;;;;;;;;;;22.00;50.60;;;;;;8335280;28;19925;-45
2021/08/05 01:55:47;;;;;;;;;;;21.90;50.60;;;;;;8334896;28;20397;-46
2021/08/05 01:59:48;;;;;;;;;;;21.90;50.60;;;;;;8334707;28;19921;-45
2021/08/05 02:03:51;;;;;;;;;;;21.90;50.50;;;;;;8335342;28;20370;-47
2021/08/05 02:08:00;;;;;;;;;;;21.90;50.50;;;;;;8334749;28;19964;-47
2021/08/05 02:12:00;;;;;;;;;;;21.90;50.50;;;;;;8332608;28;19952;-45
2021/08/05 02:16:02;;;;;;;;;;;21.90;50.50;;;;;;8334374;28;20034;-47
2021/08/05 02:20:04;;;;;;;;;;;21.90;50.50;;;;;;8334777;28;19967;-46
2021/08/05 02:24:05;;;;;;;;;;;21.90;50.60;;;;;;8333496;28;20338;-46
2021/08/05 02:28:06;;;;;;;;;;;21.90;50.50;;;;;;8334082;28;19921;-46
2021/08/05 02:32:06;;;;;;;;;;;21.90;50.60;;;;;;8333916;28;19972;-46
2021/08/05 02:36:07;;;;;;;;;;;21.90;50.60;;;;;;8334048;28;19925;-46
2021/08/05 02:40:08;;;;;;;;;;;21.80;50.50;;;;;;8333528;28;19933;-46
2021/08/05 02:44:08;;;;;;;;;;;21.80;50.50;;;;;;8333905;28;20324;-45
2021/08/05 02:48:10;;;;;;;;;;;21.80;50.50;;;;;;8332997;28;19917;-47
2021/08/05 02:52:11;;;;;;;;;;;21.90;50.60;;;;;;8333277;28;19929;-47
2021/08/05 02:56:12;;;;;;;;;;;21.80;50.50;;;;;;8333789;28;19917;-46
2021/08/05 03:00:12;;;;;;;;;;;21.80;50.50;;;;;;8332548;28;19918;-46
2021/08/05 03:04:13;;;;;;;;;;;21.80;50.50;;;;;;8333145;28;19925;-46
2021/08/05 03:08:13;;;;;;;;;;;21.80;50.50;;;;;;8332822;28;19925;-46
2021/08/05 03:12:14;;;;;;;;;;;21.80;50.50;;;;;;8332705;28;19921;-46
2021/08/05 03:16:16;;;;;;;;;;;21.80;50.50;;;;;;8332638;28;19960;-45
2021/08/05 03:20:16;;;;;;;;;;;21.80;50.50;;;;;;8332449;28;19980;-46
2021/08/05 03:24:17;;;;;;;;;;;21.80;50.50;;;;;;8331369;28;19917;-50
2021/08/05 03:28:17;;;;;;;;;;;21.80;50.50;;;;;;8332438;28;20274;-46
2021/08/05 03:32:18;;;;;;;;;;;21.80;50.50;;;;;;8332729;28;20451;-46
2021/08/05 03:36:18;;;;;;;;;;;21.80;50.50;;;;;;8331443;28;19917;-46
2021/08/05 03:40:19;;;;;;;;;;;21.80;50.50;;;;;;8331684;28;19917;-47
2021/08/05 03:44:19;;;;;;;;;;;21.80;50.50;;;;;;8331674;28;19917;-46
2021/08/05 03:48:19;;;;;;;;;;;21.80;50.50;;;;;;8331839;28;20405;-46
2021/08/05 03:52:20;;;;;;;;;;;21.70;50.40;;;;;;8313635;28;19932;-45
2021/08/05 03:56:21;;;;;;;;;;;21.70;50.40;;;;;;8331179;28;19924;-45
2021/08/05 04:00:21;;;;;;;;;;;21.80;50.50;;;;;;8330739;28;19955;-47
2021/08/05 04:04:22;;;;;;;;;;;21.70;50.40;;;;;;8331818;28;19918;-46
2021/08/05 04:08:22;;;;;;;;;;;21.70;50.40;;;;;;8330825;28;19956;-47
2021/08/05 04:12:25;;;;;;;;;;;21.70;50.40;;;;;;8329443;28;22300;-45
2021/08/05 04:16:25;;;;;;;;;;;21.70;50.40;;;;;;8330879;28;19917;-46
2021/08/05 04:20:25;;;;;;;;;;;21.70;50.40;;;;;;8330675;28;19920;-47
2021/08/05 04:24:26;;;;;;;;;;;21.70;50.40;;;;;;8330655;28;19921;-46
2021/08/05 04:28:26;;;;;;;;;;;21.70;50.40;;;;;;8330570;28;19945;-46
2021/08/05 04:32:27;;;;;;;;;;;21.70;51.00;;;;;;8330188;28;19925;-47
2021/08/05 04:36:27;;;;;;;;;;;21.70;50.40;;;;;;8328988;28;19917;-46
2021/08/05 04:40:29;;;;;;;;;;;21.70;50.40;;;;;;8330916;28;20000;-46
2021/08/05 04:44:30;;;;;;;;;;;21.70;50.40;;;;;;8330155;28;20391;-46
2021/08/05 04:48:31;;;;;;;;;;;21.70;50.40;;;;;;8329643;28;19964;-46
2021/08/05 04:52:31;;;;;;;;;;;21.60;50.40;;;;;;8329998;28;19925;-46
2021/08/05 04:56:32;;;;;;;;;;;21.70;50.40;;;;;;8330569;28;20000;-45
2021/08/05 05:00:37;;;;;;;;;;;21.70;50.40;;;;;;8329405;28;19917;-45
2021/08/05 05:04:38;;;;;;;;;;;21.70;50.40;;;;;;8329985;28;19928;-46
2021/08/05 05:08:39;;;;;;;;;;;21.60;50.40;;;;;;8329731;28;20004;-45
2021/08/05 05:12:40;;;;;;;;;;;21.60;50.40;;;;;;8329140;28;20390;-46
2021/08/05 05:16:40;;;;;;;;;;;21.60;50.40;;;;;;8330882;28;19917;-46
2021/08/05 05:20:40;;;;;;;;;;;21.60;50.40;;;;;;8329575;28;19979;-46
2021/08/05 05:24:41;;;;;;;;;;;21.70;50.40;;;;;;8329034;28;20271;-46
2021/08/05 05:28:41;;;;;;;;;;;21.70;50.40;;;;;;8329692;28;20297;-45
2021/08/05 05:32:43;;;;;;;;;;;21.70;50.40;;;;;;8329478;28;19925;-46
2021/08/05 05:36:44;;;;;;;;;;;21.70;50.40;;;;;;8329544;28;19964;-46
2021/08/05 05:40:45;;;;;;;;;;;21.70;50.40;;;;;;8329362;28;20374;-46
2021/08/05 05:44:46;;;;;;;;;;;21.60;50.40;;;;;;8329742;28;19971;-46
2021/08/05 05:48:46;;;;;;;;;;;21.60;50.40;;;;;;8335100;28;19955;-46
2021/08/05 05:52:47;;;;;;;;;;;21.60;50.40;;;;;;8335966;28;19921;-46
2021/08/05 05:56:48;;;;;;;;;;;21.60;50.40;;;;;;8334392;28;20312;-48
2021/08/05 06:00:49;;;;;;;;;;;21.60;50.40;;;;;;8334624;28;20454;-46
2021/08/05 06:04:49;;;;;;;;;;;21.60;50.40;;;;;;8334919;28;19921;-45
2021/08/05 06:08:50;;;;;;;;;;;21.60;50.40;;;;;;8334894;28;19921;-46
2021/08/05 06:12:51;;;;;;;;;;;21.60;50.40;;;;;;8334790;28;19926;-47
2021/08/05 06:16:51;;;;;;;;;;;21.60;50.40;;;;;;8334539;28;19917;-46
2021/08/05 06:20:52;;;;;;;;;;;21.60;50.40;;;;;;8333862;28;20452;-46
2021/08/05 06:24:52;;;;;;;;;;;21.60;50.40;;;;;;8334823;28;19959;-46
2021/08/05 06:28:54;;;;;;;;;;;21.60;50.40;;;;;;8334199;28;19917;-47
2021/08/05 06:32:54;;;;;;;;;;;21.60;50.40;;;;;;8333397;28;19932;-46
2021/08/05 06:36:55;;;;;;;;;;;21.60;50.40;;;;;;8333591;28;20007;-49
2021/08/05 06:40:55;;;;;;;;;;;21.60;50.40;;;;;;8333675;28;19921;-46
2021/08/05 06:44:55;;;;;;;;;;;21.70;50.40;;;;;;8333869;28;19917;-48
2021/08/05 06:48:56;;;;;;;;;;;21.60;50.40;;;;;;8333514;28;19917;-47
2021/08/05 06:52:56;;;;;;;;;;;21.60;50.40;;;;;;8333365;28;19925;-46
2021/08/05 06:56:57;;;;;;;;;;;21.70;50.50;;;;;;8331941;28;19963;-49
2021/08/05 07:01:00;;;;;;;;;;;21.70;50.40;;;;;;8333718;28;19921;-47
2021/08/05 07:05:04;;;;;;;;;;;21.60;50.40;;;;;;8333069;28;20382;-45
2021/08/05 07:09:04;;;;;;;;;;;21.60;50.40;;;;;;8332066;28;19970;-46
2021/08/05 07:13:05;;;;;;;;;;;21.70;50.50;;;;;;8332639;28;19979;-46
2021/08/05 07:17:05;;;;;;;;;;;21.70;50.40;;;;;;8331037;28;19940;-46
2021/08/05 07:21:06;;;;;;;;;;;21.60;50.40;;;;;;8299810;28;19968;-46
2021/08/05 07:25:07;;;;;;;;;;;21.60;50.40;;;;;;8323381;28;19921;-46
2021/08/05 07:29:08;;;;;;;;;;;21.70;50.40;;;;;;8332223;28;20007;-46
2021/08/05 07:33:08;;;;;;;;;;;21.60;50.40;;;;;;8331762;28;19918;-47
2021/08/05 07:37:09;;;;;;;;;;;21.70;50.40;;;;;;8332582;28;19920;-47
2021/08/05 07:41:09;;;;;;;;;;;21.70;50.40;;;;;;8331822;28;19917;-47
2021/08/05 07:45:10;;;;;;;;;;;21.70;51.00;;;;;;8331091;28;19917;-49
2021/08/05 07:49:11;;;;;;;;;;;21.70;50.40;;;;;;8331524;28;19975;-45
2021/08/05 07:53:11;;;;;;;;;;;21.70;50.40;;;;;;8332238;28;20000;-46
2021/08/05 07:57:12;;;;;;;;;;;21.70;50.40;;;;;;8330801;28;19955;-46
2021/08/05 08:01:12;;;;;;;;;;;21.70;50.40;;;;;;8331083;28;19924;-46
2021/08/05 08:05:14;;;;;;;;;;;21.70;50.40;;;;;;8330980;28;19986;-49
2021/08/05 08:09:14;;;;;;;;;;;21.70;50.40;;;;;;8330085;28;19921;-47
2021/08/05 08:13:14;;;;;;;;;;;21.70;50.40;;;;;;8331688;28;20349;-46
2021/08/05 08:17:16;;;;;;;;;;;21.70;50.40;;;;;;8330658;28;20337;-48
2021/08/05 08:21:17;;;;;;;;;;;21.70;50.30;;;;;;8329953;28;19925;-46
2021/08/05 08:25:18;;;;;;;;;;;21.70;50.30;;;;;;8330303;28;19920;-47
2021/08/05 08:29:18;;;;;;;;;;;21.70;50.30;;;;;;8331254;28;19917;-46
2021/08/05 08:33:19;;;;;;;;;;;21.80;50.30;;;;;;8329909;28;19979;-46
2021/08/05 08:37:19;;;;;;;;;;;21.70;50.30;;;;;;8330196;28;19917;-47
2021/08/05 08:41:20;;;;;;;;;;;21.80;50.40;;;;;;8330030;28;19945;-47
2021/08/05 08:45:21;;;;;;;;;;;21.80;50.40;;;;;;8330407;28;19917;-46
2021/08/05 08:49:22;;;;;;;;;;;21.80;50.40;;;;;;8330181;28;19917;-47
2021/08/05 08:53:26;;;;;;;;;;;21.80;50.40;;;;;;8330121;28;19923;-47
2021/08/05 08:57:31;;;;;;;;;;;21.80;50.30;;;;;;8329798;28;19924;-46
2021/08/05 09:01:32;;;;;;;;;;;21.80;50.30;;;;;;8330217;28;19944;-47
2021/08/05 09:05:33;;;;;;;;;;;21.80;50.30;;;;;;8330489;28;19943;-46
2021/08/05 09:09:33;;;;;;;;;;;21.80;50.30;;;;;;8329152;28;20432;-48
2021/08/05 09:13:34;;;;;;;;;;;21.80;50.30;;;;;;8330183;28;20016;-47
2021/08/05 09:17:38;;;;;;;;;;;21.90;50.40;;;;;;8329757;28;19935;-47
2021/08/05 09:21:49;;;;;;;;;;;21.90;50.30;;;;;;8333684;28;19913;-47
2021/08/05 09:25:50;;;;;;;;;;;21.90;50.30;;;;;;8341212;28;19924;-46
2021/08/05 09:29:53;;;;;;;;;;;21.90;50.30;;;;;;8335303;28;19925;-47
2021/08/05 09:34:00;;;;;;;;;;;21.90;50.30;;;;;;8335766;28;19960;-47
2021/08/05 09:38:21;;;;;;;;;;;21.90;50.30;;;;;;8335759;28;19963;-47
2021/08/05 09:42:22;;;;;;;;;;;21.90;50.30;;;;;;8321598;28;19913;-47
2021/08/05 09:46:29;;;;;;;;;;;22.00;50.30;;;;;;8335072;28;19924;-47
2021/08/05 09:50:29;;;;;;;;;;;22.00;50.30;;;;;;8335146;28;19948;-50
2021/08/05 09:54:37;;;;;;;;;;;22.00;50.20;;;;;;8334378;28;19917;-49
2021/08/05 09:58:38;;;;;;;;;;;22.00;50.20;;;;;;8335139;28;20378;-47
2021/08/05 10:02:39;;;;;;;;;;;22.00;50.20;;;;;;8335795;28;19991;-48
2021/08/05 10:06:59;;;;;;;;;;;22.10;50.20;;;;;;8333800;28;20367;-46
2021/08/05 10:10:59;;;;;;;;;;;22.10;50.20;;;;;;8334273;28;20027;-47
2021/08/05 10:15:05;;;;;;;;;;;22.10;50.20;;;;;;8334271;28;20251;-46
2021/08/05 10:19:06;;;;;;;;;;;22.10;50.20;;;;;;8334821;28;19913;-45
2021/08/05 10:23:06;;;;;;;;;;;22.10;50.20;;;;;;8334861;28;19917;-46
2021/08/05 10:27:07;;;;;;;;;;;22.10;50.20;;;;;;8333522;28;19921;-46
2021/08/05 10:31:10;;;;;;;;;;;22.10;50.20;;;;;;8332685;28;19929;-46
2021/08/05 10:35:12;;;;;;;;;;;22.10;50.20;;;;;;8333704;28;19940;-46
2021/08/05 10:39:12;;;;;;;;;;;22.10;50.10;;;;;;8333822;28;19924;-46
2021/08/05 10:43:13;;;;;;;;;;;22.10;50.10;;;;;;8333534;28;19949;-46
2021/08/05 10:47:18;;;;;;;;;;;22.10;50.10;;;;;;8333574;28;20433;-45
2021/08/05 10:51:19;;;;;;;;;;;22.20;50.10;;;;;;8332761;28;19925;-45
2021/08/05 10:55:49;;;;;;;;;;;22.20;50.10;;;;;;8333781;28;20366;-46
2021/08/05 11:00:01;;;;;;;;;;;22.20;50.10;;;;;;8316010;28;19923;-45
2021/08/05 11:04:02;;;;;;;;;;;22.20;50.10;;;;;;8333183;28;19917;-46
2021/08/05 11:08:08;;;;;;;;;;;22.20;50.10;;;;;;8332671;28;19921;-46
2021/08/05 11:12:27;;;;;;;;;;;22.20;50.00;;;;;;8332098;28;19929;-46
2021/08/05 11:16:47;;;;;;;;;;;22.30;50.00;;;;;;8332525;28;20013;-45
2021/08/05 11:20:50;;;;;;;;;;;22.30;50.00;;;;;;8332672;28;19924;-45
2021/08/05 11:24:50;;;;;;;;;;;22.30;50.00;;;;;;8332267;28;19971;-46
2021/08/05 11:28:52;;;;;;;;;;;22.30;49.90;;;;;;8332154;28;19917;-47
2021/08/05 11:32:52;;;;;;;;;;;22.30;49.90;;;;;;8321428;28;19926;-45
2021/08/05 11:37:06;;;;;;;;;;;22.40;49.90;;;;;;8299935;28;20379;-45
2021/08/05 11:41:07;;;;;;;;;;;22.40;49.90;;;;;;8299983;28;19917;-44
2021/08/05 11:45:08;;;;;;;;;;;22.40;49.90;;;;;;8298659;28;19967;-44
2021/08/05 11:49:29;;;;;;;;;;;22.40;49.90;;;;;;8298933;28;19963;-44
2021/08/05 11:53:29;;;;;;;;;;;22.40;49.90;;;;;;8298761;28;19925;-45
2021/08/05 11:57:40;;;;;;;;;;;22.40;49.90;;;;;;8298845;28;19940;-44
2021/08/05 12:02:01;;;;;;;;;;;22.40;49.90;;;;;;8298708;28;20375;-45
2021/08/05 12:06:01;;;;;;;;;;;22.40;50.00;;;;;;8297918;28;20053;-46
2021/08/05 12:10:02;;;;;;;;;;;22.40;50.10;;;;;;8298341;28;19960;-45
2021/08/05 12:14:05;;;;;;;;;;;22.40;50.20;;;;;;8298448;28;19924;-45
2021/08/05 12:18:07;;;;;;;;;;;22.40;50.20;;;;;;8298468;28;19952;-44
2021/08/05 12:22:08;;;;;;;;;;;22.30;50.20;;;;;;8298150;28;19929;-46
2021/08/05 12:26:18;;;;;;;;;;;22.30;50.30;;;;;;8298155;28;19918;-45
2021/08/05 12:30:18;;;;;;;;;;;22.30;50.30;;;;;;8297311;28;20063;-45
2021/08/05 12:34:19;;;;;;;;;;;22.30;50.30;;;;;;8298377;28;19979;-45
2021/08/05 12:38:19;;;;;;;;;;;22.30;50.40;;;;;;8298482;28;19917;-45
2021/08/05 12:42:20;;;;;;;;;;;22.30;50.50;;;;;;8297165;28;20388;-44
2021/08/05 12:46:21;;;;;;;;;;;22.30;50.50;;;;;;8297788;28;20385;-47
2021/08/05 12:50:21;;;;;;;;;;;22.30;50.60;;;;;;8297625;28;19930;-45
2021/08/05 12:54:22;;;;;;;;;;;22.30;50.60;;;;;;8298035;28;20326;-45
2021/08/05 12:58:23;;;;;;;;;;;22.30;50.60;;;;;;8304519;28;19959;-45
2021/08/05 13:02:24;;;;;;;;;;;22.30;50.50;;;;;;8304156;28;20306;-45
2021/08/05 13:06:36;;;;;;;;;;;22.30;50.60;;;;;;8303307;28;19925;-44
2021/08/05 13:10:44;;;;;;;;;;;22.30;50.60;;;;;;8303810;28;20283;-46
2021/08/05 13:14:44;;;;;;;;;;;22.30;50.60;;;;;;8303802;28;19921;-46
2021/08/05 13:19:05;;;;;;;;;;;22.30;50.60;;;;;;8303694;28;20418;-45
2021/08/05 13:23:05;;;;;;;;;;;22.30;50.70;;;;;;8303382;28;19921;-45
2021/08/05 13:27:16;;;;;;;;;;;22.40;50.70;;;;;;8302765;28;20310;-45
2021/08/05 13:31:17;;;;;;;;;;;22.40;50.70;;;;;;8304173;28;19926;-46
2021/08/05 13:35:18;;;;;;;;;;;22.40;50.60;;;;;;8303064;28;19918;-44
2021/08/05 13:39:39;;;;;;;;;;;22.40;50.70;;;;;;8302393;28;19924;-45
2021/08/05 13:43:39;;;;;;;;;;;22.40;50.80;;;;;;8302601;28;19940;-46
2021/08/05 13:47:39;;;;;;;;;;;22.40;50.60;;;;;;8302870;28;19917;-45
2021/08/05 13:51:40;;;;;;;;;;;22.40;50.60;;;;;;8302630;28;19925;-45
2021/08/05 13:55:42;;;;;;;;;;;22.40;50.70;;;;;;8302573;28;19924;-45
2021/08/05 13:59:42;;;;;;;;;;;22.40;50.60;;;;;;8302009;28;19924;-45
2021/08/05 14:03:43;;;;;;;;;;;22.40;50.60;;;;;;8302197;28;20375;-45
2021/08/05 14:07:44;;;;;;;;;;;22.40;50.60;;;;;;8302526;28;19993;-46
2021/08/05 14:11:45;;;;;;;;;;;22.40;50.60;;;;;;8301581;28;19936;-44
2021/08/05 14:15:46;;;;;;;;;;;22.40;51.20;;;;;;8301817;28;19953;-44
2021/08/05 14:19:46;;;;;;;;;;;22.40;50.60;;;;;;8301882;28;19925;-44
2021/08/05 14:23:46;;;;;;;;;;;22.40;50.60;;;;;;8301060;28;19926;-45
2021/08/05 14:27:47;;;;;;;;;;;22.40;50.50;;;;;;8302196;28;19947;-45
2021/08/05 14:31:47;;;;;;;;;;;22.50;50.60;;;;;;8301351;28;19925;-44
2021/08/05 14:35:48;;;;;;;;;;;22.50;50.60;;;;;;8300716;28;20302;-44
2021/08/05 14:39:49;;;;;;;;;;;22.50;50.70;;;;;;8301089;28;19918;-47
2021/08/05 14:43:49;;;;;;;;;;;22.50;50.50;;;;;;8301926;28;19913;-45
2021/08/05 14:47:50;;;;;;;;;;;22.50;50.40;;;;;;8300512;28;20393;-44
2021/08/05 14:51:51;;;;;;;;;;;22.60;50.50;;;;;;8300741;28;19933;-45
2021/08/05 14:55:52;;;;;;;;;;;22.60;50.40;;;;;;8300971;28;19917;-45
2021/08/05 14:59:52;;;;;;;;;;;22.60;50.40;;;;;;8300607;28;19924;-46
2021/08/05 15:03:53;;;;;;;;;;;22.60;50.40;;;;;;8300871;28;19963;-45
2021/08/05 15:07:53;;;;;;;;;;;22.60;50.40;;;;;;8300146;28;20002;-45
2021/08/05 15:11:54;;;;;;;;;;;22.60;50.30;;;;;;8299847;28;20333;-43
2021/08/05 15:15:54;;;;;;;;;;;22.60;50.30;;;;;;8299774;28;20577;-44
2021/08/05 15:19:54;;;;;;;;;;;22.60;50.40;;;;;;8300029;28;19930;-44
2021/08/05 15:23:55;;;;;;;;;;;22.60;50.30;;;;;;8299111;28;19921;-44
2021/08/05 15:27:55;;;;;;;;;;;22.60;50.30;;;;;;8299736;28;19918;-44
2021/08/05 15:31:56;;;;;;;;;;;22.60;50.30;;;;;;8299310;28;19925;-44
2021/08/05 15:35:56;;;;;;;;;;;22.60;50.30;;;;;;8299641;28;20446;-44
2021/08/05 15:39:57;;;;;;;;;;;22.70;50.30;;;;;;8299188;28;19921;-44
2021/08/05 15:43:57;;;;;;;;;;;22.60;50.30;;;;;;8299103;28;20365;-44
2021/08/05 15:47:58;;;;;;;;;;;22.60;50.30;;;;;;8298737;28;20329;-45
2021/08/05 15:51:59;;;;;;;;;;;22.60;50.20;;;;;;8299310;28;19931;-45
2021/08/05 15:55:59;;;;;;;;;;;22.60;50.20;;;;;;8299364;28;19923;-44
2021/08/05 16:00:04;;;;;;;;;;;22.60;50.20;;;;;;8298337;28;19917;-45
2021/08/05 16:04:05;;;;;;;;;;;22.70;50.20;;;;;;8298500;28;19918;-44
2021/08/05 16:08:05;;;;;;;;;;;22.70;50.20;;;;;;8298574;28;20412;-45
2021/08/05 16:12:06;;;;;;;;;;;22.70;50.20;;;;;;8298593;28;19976;-44
2021/08/05 16:16:07;;;;;;;;;;;22.60;50.10;;;;;;8298196;28;20306;-44
2021/08/05 16:20:08;;;;;;;;;;;22.70;50.20;;;;;;8298387;28;20282;-44
2021/08/05 16:24:12;;;;;;;;;;;22.70;50.20;;;;;;8297563;28;19953;-44
2021/08/05 16:28:12;;;;;;;;;;;22.70;50.10;;;;;;8299194;28;19971;-45
2021/08/05 16:32:13;;;;;;;;;;;22.70;50.10;;;;;;8297010;28;19926;-45
2021/08/05 16:36:13;;;;;;;;;;;22.70;50.10;;;;;;8297443;28;19918;-47
2021/08/05 16:40:14;;;;;;;;;;;22.70;50.10;;;;;;8298027;28;20279;-45
2021/08/05 16:44:14;;;;;;;;;;;22.70;50.10;;;;;;8297784;28;19964;-46
2021/08/05 16:48:15;;;;;;;;;;;22.70;50.10;;;;;;8298049;28;19918;-46
2021/08/05 16:52:17;;;;;;;;;;;22.70;50.20;;;;;;8297379;28;19933;-45
2021/08/05 16:56:18;;;;;;;;;;;22.70;50.20;;;;;;8297576;28;20346;-46
2021/08/05 17:00:18;;;;;;;;;;;22.70;50.20;;;;;;8297069;28;19925;-45
2021/08/05 17:04:19;;;;;;;;;;;22.70;50.20;;;;;;8298067;28;20291;-47
2021/08/05 17:08:20;;;;;;;;;;;22.60;50.20;;;;;;8297365;28;20283;-46
2021/08/05 17:12:20;;;;;;;;;;;22.60;50.10;;;;;;8296721;28;19956;-46
2021/08/05 17:16:21;;;;;;;;;;;22.60;50.10;;;;;;8297381;28;19944;-46
2021/08/05 17:20:21;;;;;;;;;;;22.70;50.20;;;;;;8297317;28;19917;-45
2021/08/05 17:24:21;;;;;;;;;;;22.70;50.20;;;;;;8297190;28;19918;-45
2021/08/05 17:28:22;;;;;;;;;;;22.60;50.10;;;;;;8297114;28;20322;-46
2021/08/05 17:32:22;;;;;;;;;;;22.60;50.10;;;;;;8296836;28;20401;-47
2021/08/05 17:36:23;;;;;;;;;;;22.60;50.10;;;;;;8296536;28;19940;-47
2021/08/05 17:40:23;;;;;;;;;;;22.70;50.20;;;;;;8298107;28;19918;-49
2021/08/05 17:44:24;;;;;;;;;;;22.60;50.10;;;;;;8303016;28;19918;-47
2021/08/05 17:48:24;;;;;;;;;;;22.60;50.10;;;;;;8302270;28;19921;-47
2021/08/05 17:52:25;;;;;;;;;;;22.60;50.10;;;;;;8302591;28;20409;-47
2021/08/05 17:56:25;;;;;;;;;;;22.60;50.10;;;;;;8303241;28;20016;-46
2021/08/05 18:00:26;;;;;;;;;;;22.60;50.10;;;;;;8301976;28;20342;-47
2021/08/05 18:04:27;;;;;;;;;;;22.60;50.10;;;;;;8302326;28;20028;-46
2021/08/05 18:08:27;;;;;;;;;;;22.60;50.10;;;;;;8302112;28;19922;-49
2021/08/05 18:12:28;;;;;;;;;;;22.60;50.10;;;;;;8301410;28;19934;-46
2021/08/05 18:16:28;;;;;;;;;;;22.60;50.10;;;;;;8302460;28;20267;-45
2021/08/05 18:20:29;;;;;;;;;;;22.60;50.10;;;;;;8301783;28;20387;-47
2021/08/05 18:24:29;;;;;;;;;;;22.60;50.10;;;;;;8301127;28;19917;-46
2021/08/05 18:28:30;;;;;;;;;;;22.60;50.10;;;;;;8301762;28;19918;-45
2021/08/05 18:32:30;;;;;;;;;;;22.60;50.10;;;;;;8302277;28;19922;-46
2021/08/05 18:36:32;;;;;;;;;;;22.60;50.10;;;;;;8300780;28;19917;-46
2021/08/05 18:40:33;;;;;;;;;;;22.60;50.10;;;;;;8301193;28;20378;-45
2021/08/05 18:44:33;;;;;;;;;;;22.60;50.10;;;;;;8300970;28;19918;-48
2021/08/05 18:48:34;;;;;;;;;;;22.60;50.10;;;;;;8301229;28;19917;-49
2021/08/05 18:52:34;;;;;;;;;;;22.60;50.10;;;;;;8299580;28;20008;-49
2021/08/05 18:56:35;;;;;;;;;;;22.60;50.10;;;;;;8300585;28;19921;-47
2021/08/05 19:00:35;;;;;;;;;;;22.50;50.10;;;;;;8299931;28;19927;-46
2021/08/05 19:04:36;;;;;;;;;;;22.50;50.00;;;;;;8300244;28;19921;-48
2021/08/05 19:08:37;;;;;;;;;;;22.50;50.00;;;;;;8301024;28;20012;-47
2021/08/05 19:12:42;;;;;;;;;;;22.50;50.00;;;;;;8299891;28;19926;-49
2021/08/05 19:16:43;;;;;;;;;;;22.50;50.10;;;;;;8300009;28;19914;-48
2021/08/05 19:20:43;;;;;;;;;;;22.50;50.00;;;;;;8299550;28;19919;-46
2021/08/05 19:24:45;;;;;;;;;;;22.50;50.00;;;;;;8300277;28;19917;-47
2021/08/05 19:28:45;;;;;;;;;;;22.50;50.00;;;;;;8299887;28;19921;-47
2021/08/05 19:32:46;;;;;;;;;;;22.50;50.00;;;;;;8299127;28;20413;-47
2021/08/05 19:36:46;;;;;;;;;;;22.50;50.00;;;;;;8299182;28;19918;-46
2021/08/05 19:40:46;;;;;;;;;;;22.50;50.10;;;;;;8299293;28;19921;-45
2021/08/05 19:44:47;;;;;;;;;;;22.50;50.00;;;;;;8299114;28;20393;-45
2021/08/05 19:48:47;;;;;;;;;;;22.50;50.10;;;;;;8299232;28;19917;-46
2021/08/05 19:52:48;;;;;;;;;;;22.50;50.10;;;;;;8298829;28;20020;-45
2021/08/05 19:56:48;;;;;;;;;;;22.50;50.10;;;;;;8298322;28;19922;-46
2021/08/05 20:00:49;;;;;;;;;;;22.50;50.00;;;;;;8299375;28;19945;-46
2021/08/05 20:04:49;;;;;;;;;;;22.50;50.10;;;;;;8298330;28;19917;-46
2021/08/05 20:08:50;;;;;;;;;;;22.50;50.10;;;;;;8297861;28;19921;-47
2021/08/05 20:12:50;;;;;;;;;;;22.50;50.10;;;;;;8298473;28;19971;-46
2021/08/05 20:16:51;;;;;;;;;;;22.50;50.10;;;;;;8298920;28;19920;-47
2021/08/05 20:20:51;;;;;;;;;;;22.50;50.10;;;;;;8297629;28;19918;-46
2021/08/05 20:24:52;;;;;;;;;;;22.50;50.10;;;;;;8297858;28;19917;-46
2021/08/05 20:28:52;;;;;;;;;;;22.40;50.00;;;;;;8298165;28;19917;-47
2021/08/05 20:32:53;;;;;;;;;;;22.40;50.10;;;;;;8297449;28;20055;-46
2021/08/05 20:36:54;;;;;;;;;;;22.40;50.00;;;;;;8298738;28;19921;-46
2021/08/05 20:40:54;;;;;;;;;;;22.40;50.00;;;;;;8297650;28;19917;-46
2021/08/05 20:44:55;;;;;;;;;;;22.40;50.00;;;;;;8297945;28;19925;-46
2021/08/05 20:48:55;;;;;;;;;;;22.40;50.00;;;;;;8297739;28;19929;-46
2021/08/05 20:52:56;;;;;;;;;;;22.40;50.00;;;;;;8298052;28;20298;-47
2021/08/05 20:56:57;;;;;;;;;;;22.40;50.00;;;;;;8297005;28;19924;-45
2021/08/05 21:00:58;;;;;;;;;;;22.40;50.00;;;;;;8297209;28;19917;-46
2021/08/05 21:04:58;;;;;;;;;;;22.40;50.00;;;;;;8297239;28;19944;-46
2021/08/05 21:08:59;;;;;;;;;;;22.40;50.00;;;;;;8297312;28;19929;-46
2021/08/05 21:12:59;;;;;;;;;;;22.40;50.00;;;;;;8297492;28;19925;-46
2021/08/05 21:17:00;;;;;;;;;;;22.40;50.00;;;;;;8299947;28;19917;-46
2021/08/05 21:21:00;;;;;;;;;;;22.40;50.10;;;;;;8303069;28;19913;-46
2021/08/05 21:25:01;;;;;;;;;;;22.40;50.10;;;;;;8303364;28;20028;-46
2021/08/05 21:29:01;;;;;;;;;;;22.40;50.00;;;;;;8304036;28;19940;-47
2021/08/05 21:33:02;;;;;;;;;;;22.40;50.00;;;;;;8302767;28;20080;-45
2021/08/05 21:37:02;;;;;;;;;;;22.30;50.00;;;;;;8303402;28;19971;-45
2021/08/05 21:41:03;;;;;;;;;;;22.30;50.00;;;;;;8302889;28;19921;-45
2021/08/05 21:45:06;;;;;;;;;;;22.30;50.00;;;;;;8303162;28;19996;-46
2021/08/05 21:49:07;;;;;;;;;;;22.30;50.00;;;;;;8303045;28;20374;-45
2021/08/05 21:53:07;;;;;;;;;;;22.30;50.00;;;;;;8302577;28;19926;-45
2021/08/05 21:57:08;;;;;;;;;;;22.30;50.00;;;;;;8301978;28;19921;-45
2021/08/05 22:01:08;;;;;;;;;;;22.30;50.00;;;;;;8308662;28;19948;-48
2021/08/05 22:05:09;;;;;;;;;;;22.30;50.00;;;;;;8302679;28;20004;-46
2021/08/05 22:09:09;;;;;;;;;;;22.30;50.00;;;;;;8301539;28;19936;-45
2021/08/05 22:13:10;;;;;;;;;;;22.30;50.00;;;;;;8301915;28;19972;-47
2021/08/05 22:17:10;;;;;;;;;;;22.30;50.00;;;;;;8301787;28;19944;-47
2021/08/05 22:21:11;;;;;;;;;;;22.30;50.00;;;;;;8302329;28;19917;-46
2021/08/05 22:25:11;;;;;;;;;;;22.30;50.00;;;;;;8301527;28;19917;-47
2021/08/05 22:29:12;;;;;;;;;;;22.30;50.00;;;;;;8301573;28;19917;-48
2021/08/05 22:33:12;;;;;;;;;;;22.30;50.00;;;;;;8300819;28;20383;-45
2021/08/05 22:37:13;;;;;;;;;;;22.30;50.00;;;;;;8301961;28;20012;-46
2021/08/05 22:41:14;;;;;;;;;;;22.30;50.00;;;;;;8301072;28;19918;-46
2021/08/05 22:45:16;;;;;;;;;;;22.30;50.00;;;;;;8300831;28;19932;-48
2021/08/05 22:49:16;;;;;;;;;;;22.20;49.90;;;;;;8300846;28;19983;-49
2021/08/05 22:53:17;;;;;;;;;;;22.20;49.90;;;;;;8300693;28;20264;-47
2021/08/05 22:57:17;;;;;;;;;;;22.20;49.90;;;;;;8300781;28;19914;-46
2021/08/05 23:01:17;;;;;;;;;;;22.20;49.90;;;;;;8300492;28;20400;-45
2021/08/05 23:05:18;;;;;;;;;;;22.20;50.00;;;;;;8300316;28;19918;-49
2021/08/05 23:09:19;;;;;;;;;;;22.20;49.90;;;;;;8299627;28;20119;-45
2021/08/05 23:13:19;;;;;;;;;;;22.20;49.90;;;;;;8300699;28;19935;-46
2021/08/05 23:17:20;;;;;;;;;;;22.20;49.90;;;;;;8299978;28;20027;-46
2021/08/05 23:21:20;;;;;;;;;;;22.20;49.90;;;;;;8299344;28;19953;-46
2021/08/05 23:25:21;;;;;;;;;;;22.20;49.90;;;;;;8299693;28;19925;-46